الصفحة الرئيسية
METAR-TAF:

METAR-TAF

مطار :

Thoothukudi, الهند

دائرة عرض: 8-43-27N, خط طول: 78-01-33E, ارتفاع: 39 متر

مراقبة الطقس الحالي

تاريخ ووقت الإصدار 1ساعة و 9 دقيقة قبل الساعة 07:30UTC
ريح 3 عقدة من الشرق/الشمال الشرقي
درجة الحرارة 30°درجة مئوية
الرطوبة 62%
ضغط 1010 hPa
الرؤية: 6000 متر
غيوم متفرقة على ارتفاع 2000 قدم
غيوم قليلة على ارتفاع 2500 قدم, مزن ركامية عمودية.

METAR: VOTK 260730Z 07003KT 6000 SCT020 FEW025TCU 30/22 Q1010 NOSIG

زمن: 14:09 (08:39 UTC)


TAF: مفقودة

أرصاد الطقس والتوقعات من أكثر من 4000 مطار (تقارير الطقس للمطار METAR والتنبؤ بالطقس بالمطارTAF).

المحطات المتاحة هي النقط الصفراء والحمراء على الخريطة.

حرك المؤشر فوق النقطة لمعرفة اسم المحطة.

ثم انقر لمعرفة أرصاد وتوقعات الطقس.

لتغيير الخارطة: اضغط على الأزرار الخضراء مع رمز الصليب الأسود للتكبير. على الزر الأخضر مع شرطة للتصغير، أو على الأسهم الخضراء للخرائط المجاورة.


METAR-TAF: